sensor_id;sensor_type;location;lat;lon;timestamp;temperature;humidity
3310;DHT22;1667;53.238;10.394;2022-08-21T00:03:34;19.70;84.20
3310;DHT22;1667;53.238;10.394;2022-08-21T00:08:34;19.60;84.40
3310;DHT22;1667;53.238;10.394;2022-08-21T00:13:33;19.60;84.50
3310;DHT22;1667;53.238;10.394;2022-08-21T00:18:32;19.50;85.00
3310;DHT22;1667;53.238;10.394;2022-08-21T00:23:34;19.40;83.90
3310;DHT22;1667;53.238;10.394;2022-08-21T00:28:32;19.40;84.70
3310;DHT22;1667;53.238;10.394;2022-08-21T00:33:31;19.30;84.90
3310;DHT22;1667;53.238;10.394;2022-08-21T00:38:30;19.30;85.00
3310;DHT22;1667;53.238;10.394;2022-08-21T00:43:38;19.20;84.80
3310;DHT22;1667;53.238;10.394;2022-08-21T00:48:36;19.20;85.10
3310;DHT22;1667;53.238;10.394;2022-08-21T00:53:36;19.20;85.10
3310;DHT22;1667;53.238;10.394;2022-08-21T00:58:38;19.10;85.20
3310;DHT22;1667;53.238;10.394;2022-08-21T01:03:40;19.10;85.40
3310;DHT22;1667;53.238;10.394;2022-08-21T01:08:41;19.00;85.70
3310;DHT22;1667;53.238;10.394;2022-08-21T01:13:44;19.00;85.90
3310;DHT22;1667;53.238;10.394;2022-08-21T01:18:44;18.90;85.70
3310;DHT22;1667;53.238;10.394;2022-08-21T01:23:47;18.90;86.10
3310;DHT22;1667;53.238;10.394;2022-08-21T01:28:51;18.80;86.00
3310;DHT22;1667;53.238;10.394;2022-08-21T01:33:50;18.80;86.10
3310;DHT22;1667;53.238;10.394;2022-08-21T01:38:50;18.70;86.10
3310;DHT22;1667;53.238;10.394;2022-08-21T01:43:49;18.70;86.50
3310;DHT22;1667;53.238;10.394;2022-08-21T01:48:47;18.60;86.70
3310;DHT22;1667;53.238;10.394;2022-08-21T01:53:47;18.60;86.70
3310;DHT22;1667;53.238;10.394;2022-08-21T01:58:49;18.50;86.70
3310;DHT22;1667;53.238;10.394;2022-08-21T02:03:48;18.50;87.10
3310;DHT22;1667;53.238;10.394;2022-08-21T02:08:47;18.40;87.00
3310;DHT22;1667;53.238;10.394;2022-08-21T02:13:48;18.40;87.00
3310;DHT22;1667;53.238;10.394;2022-08-21T02:18:47;18.40;87.20
3310;DHT22;1667;53.238;10.394;2022-08-21T02:23:46;18.30;87.10
3310;DHT22;1667;53.238;10.394;2022-08-21T02:28:44;18.30;87.50
3310;DHT22;1667;53.238;10.394;2022-08-21T02:33:44;18.20;87.70
3310;DHT22;1667;53.238;10.394;2022-08-21T02:38:43;18.20;87.70
3310;DHT22;1667;53.238;10.394;2022-08-21T02:43:42;18.20;87.90
3310;DHT22;1667;53.238;10.394;2022-08-21T02:48:40;18.10;87.80
3310;DHT22;1667;53.238;10.394;2022-08-21T02:53:41;18.10;87.70
3310;DHT22;1667;53.238;10.394;2022-08-21T02:58:42;18.00;88.00
3310;DHT22;1667;53.238;10.394;2022-08-21T03:03:43;18.00;88.30
3310;DHT22;1667;53.238;10.394;2022-08-21T03:08:43;17.90;88.20
3310;DHT22;1667;53.238;10.394;2022-08-21T03:13:44;17.90;88.60
3310;DHT22;1667;53.238;10.394;2022-08-21T03:18:43;17.90;88.50
3310;DHT22;1667;53.238;10.394;2022-08-21T03:23:43;17.90;88.60
3310;DHT22;1667;53.238;10.394;2022-08-21T03:28:41;17.80;88.60
3310;DHT22;1667;53.238;10.394;2022-08-21T03:33:40;17.70;88.90
3310;DHT22;1667;53.238;10.394;2022-08-21T03:38:39;17.70;88.70
3310;DHT22;1667;53.238;10.394;2022-08-21T03:43:39;17.70;88.90
3310;DHT22;1667;53.238;10.394;2022-08-21T03:48:39;17.60;88.60
3310;DHT22;1667;53.238;10.394;2022-08-21T03:53:38;17.60;89.10
3310;DHT22;1667;53.238;10.394;2022-08-21T03:58:39;17.60;89.50
3310;DHT22;1667;53.238;10.394;2022-08-21T04:03:38;17.50;89.40
3310;DHT22;1667;53.238;10.394;2022-08-21T04:08:36;17.50;89.20
3310;DHT22;1667;53.238;10.394;2022-08-21T04:13:35;17.50;90.00
3310;DHT22;1667;53.238;10.394;2022-08-21T04:18:42;17.40;89.70
3310;DHT22;1667;53.238;10.394;2022-08-21T04:23:41;17.40;89.90
3310;DHT22;1667;53.238;10.394;2022-08-21T04:28:39;17.40;90.00
3310;DHT22;1667;53.238;10.394;2022-08-21T04:45:13;17.30;90.10
3310;DHT22;1667;53.238;10.394;2022-08-21T04:50:35;17.20;89.80
3310;DHT22;1667;53.238;10.394;2022-08-21T04:55:37;17.20;90.50
3310;DHT22;1667;53.238;10.394;2022-08-21T05:00:39;17.20;90.40
3310;DHT22;1667;53.238;10.394;2022-08-21T05:05:41;17.20;90.50
3310;DHT22;1667;53.238;10.394;2022-08-21T05:10:55;17.20;90.60
3310;DHT22;1667;53.238;10.394;2022-08-21T05:16:06;17.20;90.80
3310;DHT22;1667;53.238;10.394;2022-08-21T05:21:34;17.30;91.20
3310;DHT22;1667;53.238;10.394;2022-08-21T05:26:33;17.30;90.90
3310;DHT22;1667;53.238;10.394;2022-08-21T05:31:44;17.30;91.00
3310;DHT22;1667;53.238;10.394;2022-08-21T05:36:43;17.30;91.30
3310;DHT22;1667;53.238;10.394;2022-08-21T05:41:41;17.40;91.50
3310;DHT22;1667;53.238;10.394;2022-08-21T05:46:40;17.40;91.90
3310;DHT22;1667;53.238;10.394;2022-08-21T05:51:41;17.50;92.00
3310;DHT22;1667;53.238;10.394;2022-08-21T05:56:39;17.50;92.10
3310;DHT22;1667;53.238;10.394;2022-08-21T06:01:41;17.60;92.70
3310;DHT22;1667;53.238;10.394;2022-08-21T06:06:41;17.70;92.80
3310;DHT22;1667;53.238;10.394;2022-08-21T06:11:39;17.80;93.00
3310;DHT22;1667;53.238;10.394;2022-08-21T06:16:37;18.00;93.10
3310;DHT22;1667;53.238;10.394;2022-08-21T06:21:36;18.10;93.00
3310;DHT22;1667;53.238;10.394;2022-08-21T06:26:35;18.20;93.40
3310;DHT22;1667;53.238;10.394;2022-08-21T06:31:35;18.30;93.30
3310;DHT22;1667;53.238;10.394;2022-08-21T06:36:33;18.40;93.10
3310;DHT22;1667;53.238;10.394;2022-08-21T06:41:32;18.50;92.70
3310;DHT22;1667;53.238;10.394;2022-08-21T06:46:37;18.50;92.50
3310;DHT22;1667;53.238;10.394;2022-08-21T06:51:36;18.60;92.50
3310;DHT22;1667;53.238;10.394;2022-08-21T06:56:34;18.70;92.90
3310;DHT22;1667;53.238;10.394;2022-08-21T07:01:34;18.80;92.40
3310;DHT22;1667;53.238;10.394;2022-08-21T07:06:37;18.90;92.50
3310;DHT22;1667;53.238;10.394;2022-08-21T07:11:35;19.00;92.60
3310;DHT22;1667;53.238;10.394;2022-08-21T07:16:43;19.10;92.40
3310;DHT22;1667;53.238;10.394;2022-08-21T07:21:43;19.30;92.30
3310;DHT22;1667;53.238;10.394;2022-08-21T07:26:41;19.60;92.20
3310;DHT22;1667;53.238;10.394;2022-08-21T07:31:40;19.70;92.10
3310;DHT22;1667;53.238;10.394;2022-08-21T07:36:38;19.90;92.00
3310;DHT22;1667;53.238;10.394;2022-08-21T07:41:37;20.10;91.90
3310;DHT22;1667;53.238;10.394;2022-08-21T07:46:36;20.30;91.90
3310;DHT22;1667;53.238;10.394;2022-08-21T07:51:34;20.50;91.80
3310;DHT22;1667;53.238;10.394;2022-08-21T07:56:32;20.70;91.30
3310;DHT22;1667;53.238;10.394;2022-08-21T08:01:32;20.90;91.20
3310;DHT22;1667;53.238;10.394;2022-08-21T08:06:30;21.10;91.10
3310;DHT22;1667;53.238;10.394;2022-08-21T08:11:29;21.20;90.60
3310;DHT22;1667;53.238;10.394;2022-08-21T08:16:28;21.40;88.80
3310;DHT22;1667;53.238;10.394;2022-08-21T08:21:27;21.60;88.80
3310;DHT22;1667;53.238;10.394;2022-08-21T08:26:26;21.80;88.60
3310;DHT22;1667;53.238;10.394;2022-08-21T08:31:25;22.00;87.80
3310;DHT22;1667;53.238;10.394;2022-08-21T08:36:34;22.10;87.70
3310;DHT22;1667;53.238;10.394;2022-08-21T08:41:36;22.30;87.20
3310;DHT22;1667;53.238;10.394;2022-08-21T08:46:38;22.50;86.90
3310;DHT22;1667;53.238;10.394;2022-08-21T08:51:44;22.70;86.30
3310;DHT22;1667;53.238;10.394;2022-08-21T08:56:50;22.80;85.90
3310;DHT22;1667;53.238;10.394;2022-08-21T09:01:49;22.90;86.10
3310;DHT22;1667;53.238;10.394;2022-08-21T09:07:01;23.10;86.10
3310;DHT22;1667;53.238;10.394;2022-08-21T09:12:09;23.20;85.00
3310;DHT22;1667;53.238;10.394;2022-08-21T09:17:17;23.50;85.10
3310;DHT22;1667;53.238;10.394;2022-08-21T09:22:23;23.60;85.30
3310;DHT22;1667;53.238;10.394;2022-08-21T09:27:25;23.90;85.60
3310;DHT22;1667;53.238;10.394;2022-08-21T09:32:25;24.10;85.70
3310;DHT22;1667;53.238;10.394;2022-08-21T09:37:46;24.40;85.30
3310;DHT22;1667;53.238;10.394;2022-08-21T09:42:54;24.60;84.60
3310;DHT22;1667;53.238;10.394;2022-08-21T09:47:53;24.80;83.90
3310;DHT22;1667;53.238;10.394;2022-08-21T09:52:55;25.10;83.90
3310;DHT22;1667;53.238;10.394;2022-08-21T09:57:55;25.30;82.70
3310;DHT22;1667;53.238;10.394;2022-08-21T10:02:53;25.50;82.00
3310;DHT22;1667;53.238;10.394;2022-08-21T10:07:53;25.80;82.30
3310;DHT22;1667;53.238;10.394;2022-08-21T10:12:58;26.00;81.10
3310;DHT22;1667;53.238;10.394;2022-08-21T10:18:08;26.30;81.30
3310;DHT22;1667;53.238;10.394;2022-08-21T10:23:31;26.50;80.70
3310;DHT22;1667;53.238;10.394;2022-08-21T10:28:37;26.80;80.30
3310;DHT22;1667;53.238;10.394;2022-08-21T10:33:44;26.90;77.80
3310;DHT22;1667;53.238;10.394;2022-08-21T10:38:57;27.10;77.80
3310;DHT22;1667;53.238;10.394;2022-08-21T10:44:25;27.20;77.40
3310;DHT22;1667;53.238;10.394;2022-08-21T10:49:37;27.30;74.90
3310;DHT22;1667;53.238;10.394;2022-08-21T10:54:44;27.20;75.30
3310;DHT22;1667;53.238;10.394;2022-08-21T10:59:56;27.30;75.30
3310;DHT22;1667;53.238;10.394;2022-08-21T11:04:58;27.30;74.50
3310;DHT22;1667;53.238;10.394;2022-08-21T11:10:05;27.30;72.90
3310;DHT22;1667;53.238;10.394;2022-08-21T11:15:26;27.30;74.20
3310;DHT22;1667;53.238;10.394;2022-08-21T11:20:30;27.40;73.90
3310;DHT22;1667;53.238;10.394;2022-08-21T11:25:35;27.40;73.00
3310;DHT22;1667;53.238;10.394;2022-08-21T11:30:55;27.40;71.60
3310;DHT22;1667;53.238;10.394;2022-08-21T11:36:00;27.50;73.00
3310;DHT22;1667;53.238;10.394;2022-08-21T11:41:18;27.60;73.00
3310;DHT22;1667;53.238;10.394;2022-08-21T11:46:25;27.70;71.40
3310;DHT22;1667;53.238;10.394;2022-08-21T11:51:29;27.80;71.10
3310;DHT22;1667;53.238;10.394;2022-08-21T11:56:33;27.80;70.20
3310;DHT22;1667;53.238;10.394;2022-08-21T12:01:37;27.90;70.30
3310;DHT22;1667;53.238;10.394;2022-08-21T12:06:38;27.90;70.00
3310;DHT22;1667;53.238;10.394;2022-08-21T12:11:48;27.90;70.20
3310;DHT22;1667;53.238;10.394;2022-08-21T12:16:49;28.00;67.50
3310;DHT22;1667;53.238;10.394;2022-08-21T12:21:49;28.10;68.50
3310;DHT22;1667;53.238;10.394;2022-08-21T12:26:52;28.30;67.70
3310;DHT22;1667;53.238;10.394;2022-08-21T12:31:57;28.50;67.70
3310;DHT22;1667;53.238;10.394;2022-08-21T12:37:01;28.70;66.40
3310;DHT22;1667;53.238;10.394;2022-08-21T12:42:06;28.90;65.20
3310;DHT22;1667;53.238;10.394;2022-08-21T12:47:13;29.00;64.30
3310;DHT22;1667;53.238;10.394;2022-08-21T12:52:19;29.10;64.10
3310;DHT22;1667;53.238;10.394;2022-08-21T12:57:22;29.20;63.70
3310;DHT22;1667;53.238;10.394;2022-08-21T13:02:25;29.20;63.90
3310;DHT22;1667;53.238;10.394;2022-08-21T13:07:29;29.20;63.60
3310;DHT22;1667;53.238;10.394;2022-08-21T13:12:31;29.20;65.00
3310;DHT22;1667;53.238;10.394;2022-08-21T13:17:32;29.30;64.10
3310;DHT22;1667;53.238;10.394;2022-08-21T13:22:40;29.30;65.70
3310;DHT22;1667;53.238;10.394;2022-08-21T13:27:41;29.30;63.30
3310;DHT22;1667;53.238;10.394;2022-08-21T13:32:42;29.40;64.70
3310;DHT22;1667;53.238;10.394;2022-08-21T13:37:46;29.50;63.80
3310;DHT22;1667;53.238;10.394;2022-08-21T13:42:47;29.50;63.10
3310;DHT22;1667;53.238;10.394;2022-08-21T13:47:48;29.50;62.60
3310;DHT22;1667;53.238;10.394;2022-08-21T13:52:53;29.50;63.40
3310;DHT22;1667;53.238;10.394;2022-08-21T13:58:03;29.50;62.10
3310;DHT22;1667;53.238;10.394;2022-08-21T14:03:05;29.60;64.20
3310;DHT22;1667;53.238;10.394;2022-08-21T14:08:07;29.60;63.30
3310;DHT22;1667;53.238;10.394;2022-08-21T14:13:26;29.60;61.60
3310;DHT22;1667;53.238;10.394;2022-08-21T14:18:25;29.40;61.80
3310;DHT22;1667;53.238;10.394;2022-08-21T14:23:24;29.30;62.60
3310;DHT22;1667;53.238;10.394;2022-08-21T14:28:26;29.20;61.10
3310;DHT22;1667;53.238;10.394;2022-08-21T14:33:27;29.20;62.00
3310;DHT22;1667;53.238;10.394;2022-08-21T14:38:27;29.20;62.40
3310;DHT22;1667;53.238;10.394;2022-08-21T14:43:28;29.20;61.00
3310;DHT22;1667;53.238;10.394;2022-08-21T14:48:26;29.10;61.30
3310;DHT22;1667;53.238;10.394;2022-08-21T14:53:27;29.10;62.10
3310;DHT22;1667;53.238;10.394;2022-08-21T14:58:26;29.10;61.70
3310;DHT22;1667;53.238;10.394;2022-08-21T15:03:25;29.20;62.00
3310;DHT22;1667;53.238;10.394;2022-08-21T15:08:23;29.20;62.50
3310;DHT22;1667;53.238;10.394;2022-08-21T15:13:22;29.20;61.10
3310;DHT22;1667;53.238;10.394;2022-08-21T15:18:24;29.30;60.20
3310;DHT22;1667;53.238;10.394;2022-08-21T15:23:23;29.30;60.60
3310;DHT22;1667;53.238;10.394;2022-08-21T15:28:21;29.30;61.10
3310;DHT22;1667;53.238;10.394;2022-08-21T15:33:19;29.30;60.10
3310;DHT22;1667;53.238;10.394;2022-08-21T15:38:19;29.20;61.50
3310;DHT22;1667;53.238;10.394;2022-08-21T15:43:22;29.00;61.00
3310;DHT22;1667;53.238;10.394;2022-08-21T15:48:26;29.10;61.30
3310;DHT22;1667;53.238;10.394;2022-08-21T15:53:26;29.10;61.70
3310;DHT22;1667;53.238;10.394;2022-08-21T15:58:24;29.00;60.40
3310;DHT22;1667;53.238;10.394;2022-08-21T16:03:23;28.60;62.30
3310;DHT22;1667;53.238;10.394;2022-08-21T16:08:23;28.60;61.90
3310;DHT22;1667;53.238;10.394;2022-08-21T16:13:26;28.60;63.20
3310;DHT22;1667;53.238;10.394;2022-08-21T16:18:25;28.70;61.60
3310;DHT22;1667;53.238;10.394;2022-08-21T16:23:24;28.60;62.50
3310;DHT22;1667;53.238;10.394;2022-08-21T16:28:23;28.60;62.30
3310;DHT22;1667;53.238;10.394;2022-08-21T16:33:26;28.60;65.00
3310;DHT22;1667;53.238;10.394;2022-08-21T16:38:27;28.60;62.90
3310;DHT22;1667;53.238;10.394;2022-08-21T16:43:29;28.60;61.90
3310;DHT22;1667;53.238;10.394;2022-08-21T16:48:29;28.20;61.80
3310;DHT22;1667;53.238;10.394;2022-08-21T16:53:27;28.30;62.80
3310;DHT22;1667;53.238;10.394;2022-08-21T16:58:31;28.30;62.60
3310;DHT22;1667;53.238;10.394;2022-08-21T17:03:32;28.20;62.50
3310;DHT22;1667;53.238;10.394;2022-08-21T17:08:31;28.20;61.70
3310;DHT22;1667;53.238;10.394;2022-08-21T17:13:31;28.10;61.80
3310;DHT22;1667;53.238;10.394;2022-08-21T17:18:29;28.00;61.60
3310;DHT22;1667;53.238;10.394;2022-08-21T17:23:27;27.90;61.90
3310;DHT22;1667;53.238;10.394;2022-08-21T17:28:30;27.80;62.60
3310;DHT22;1667;53.238;10.394;2022-08-21T17:33:34;27.70;63.10
3310;DHT22;1667;53.238;10.394;2022-08-21T17:38:34;27.60;63.30
3310;DHT22;1667;53.238;10.394;2022-08-21T17:43:33;27.50;63.00
3310;DHT22;1667;53.238;10.394;2022-08-21T17:48:33;27.30;63.00
3310;DHT22;1667;53.238;10.394;2022-08-21T17:53:49;27.10;63.10
3310;DHT22;1667;53.238;10.394;2022-08-21T17:58:49;26.90;64.40
3310;DHT22;1667;53.238;10.394;2022-08-21T18:03:49;26.80;64.10
3310;DHT22;1667;53.238;10.394;2022-08-21T18:08:47;26.60;64.20
3310;DHT22;1667;53.238;10.394;2022-08-21T18:13:45;26.40;64.80
3310;DHT22;1667;53.238;10.394;2022-08-21T18:18:45;26.30;65.40
3310;DHT22;1667;53.238;10.394;2022-08-21T18:23:46;26.20;65.50
3310;DHT22;1667;53.238;10.394;2022-08-21T18:28:44;26.10;66.90
3310;DHT22;1667;53.238;10.394;2022-08-21T18:33:42;26.00;66.30
3310;DHT22;1667;53.238;10.394;2022-08-21T18:38:55;25.90;66.70
3310;DHT22;1667;53.238;10.394;2022-08-21T18:44:15;25.70;66.80
3310;DHT22;1667;53.238;10.394;2022-08-21T18:49:14;25.70;67.20
3310;DHT22;1667;53.238;10.394;2022-08-21T18:54:15;25.60;67.30
3310;DHT22;1667;53.238;10.394;2022-08-21T18:59:14;25.50;67.60
3310;DHT22;1667;53.238;10.394;2022-08-21T19:04:13;25.40;68.00
3310;DHT22;1667;53.238;10.394;2022-08-21T19:09:33;25.30;68.20
3310;DHT22;1667;53.238;10.394;2022-08-21T19:14:31;25.20;68.60
3310;DHT22;1667;53.238;10.394;2022-08-21T19:19:33;25.10;69.10
3310;DHT22;1667;53.238;10.394;2022-08-21T19:24:36;25.00;68.90
3310;DHT22;1667;53.238;10.394;2022-08-21T19:29:35;24.90;69.40
3310;DHT22;1667;53.238;10.394;2022-08-21T19:34:36;24.80;70.20
3310;DHT22;1667;53.238;10.394;2022-08-21T19:39:36;24.60;70.30
3310;DHT22;1667;53.238;10.394;2022-08-21T19:44:42;24.50;70.70
3310;DHT22;1667;53.238;10.394;2022-08-21T19:49:46;24.40;70.90
3310;DHT22;1667;53.238;10.394;2022-08-21T19:54:47;24.30;71.20
3310;DHT22;1667;53.238;10.394;2022-08-21T19:59:45;24.10;71.30
3310;DHT22;1667;53.238;10.394;2022-08-21T20:04:43;24.00;71.80
3310;DHT22;1667;53.238;10.394;2022-08-21T20:10:04;23.80;72.00
3310;DHT22;1667;53.238;10.394;2022-08-21T20:15:07;23.70;72.60
3310;DHT22;1667;53.238;10.394;2022-08-21T20:20:06;23.60;73.00
3310;DHT22;1667;53.238;10.394;2022-08-21T20:25:09;23.40;73.60
3310;DHT22;1667;53.238;10.394;2022-08-21T20:30:10;23.20;74.20
3310;DHT22;1667;53.238;10.394;2022-08-21T20:35:09;23.20;74.80
3310;DHT22;1667;53.238;10.394;2022-08-21T20:40:12;23.20;75.20
3310;DHT22;1667;53.238;10.394;2022-08-21T20:45:11;23.10;75.50
3310;DHT22;1667;53.238;10.394;2022-08-21T20:50:18;23.10;75.90
3310;DHT22;1667;53.238;10.394;2022-08-21T20:55:23;23.00;76.20
3310;DHT22;1667;53.238;10.394;2022-08-21T21:00:26;22.90;76.60
3310;DHT22;1667;53.238;10.394;2022-08-21T21:05:34;22.90;77.80
3310;DHT22;1667;53.238;10.394;2022-08-21T21:10:40;22.80;77.00
3310;DHT22;1667;53.238;10.394;2022-08-21T21:15:41;22.80;77.10
3310;DHT22;1667;53.238;10.394;2022-08-21T21:20:46;22.70;77.30
3310;DHT22;1667;53.238;10.394;2022-08-21T21:25:54;22.70;77.30
3310;DHT22;1667;53.238;10.394;2022-08-21T21:30:54;22.60;77.20
3310;DHT22;1667;53.238;10.394;2022-08-21T21:35:58;22.60;77.20
3310;DHT22;1667;53.238;10.394;2022-08-21T21:41:07;22.60;77.30
3310;DHT22;1667;53.238;10.394;2022-08-21T21:46:18;22.50;77.70
3310;DHT22;1667;53.238;10.394;2022-08-21T21:51:27;22.40;77.90
3310;DHT22;1667;53.238;10.394;2022-08-21T21:56:39;22.40;78.40
3310;DHT22;1667;53.238;10.394;2022-08-21T22:01:45;22.30;78.30
3310;DHT22;1667;53.238;10.394;2022-08-21T22:06:51;22.30;78.90
3310;DHT22;1667;53.238;10.394;2022-08-21T22:12:22;22.20;78.90
3310;DHT22;1667;53.238;10.394;2022-08-21T22:17:35;22.20;78.60
3310;DHT22;1667;53.238;10.394;2022-08-21T22:22:37;22.10;79.00
3310;DHT22;1667;53.238;10.394;2022-08-21T22:27:38;22.10;79.20
3310;DHT22;1667;53.238;10.394;2022-08-21T22:32:40;21.90;79.80
3310;DHT22;1667;53.238;10.394;2022-08-21T22:37:43;21.90;80.40
3310;DHT22;1667;53.238;10.394;2022-08-21T22:42:56;21.80;80.20
3310;DHT22;1667;53.238;10.394;2022-08-21T22:48:02;21.80;80.10
3310;DHT22;1667;53.238;10.394;2022-08-21T22:53:08;21.70;80.50
3310;DHT22;1667;53.238;10.394;2022-08-21T22:58:10;21.60;81.10
3310;DHT22;1667;53.238;10.394;2022-08-21T23:03:19;21.60;81.40
3310;DHT22;1667;53.238;10.394;2022-08-21T23:08:29;21.60;81.90
3310;DHT22;1667;53.238;10.394;2022-08-21T23:13:38;21.60;81.90
3310;DHT22;1667;53.238;10.394;2022-08-21T23:18:46;21.50;82.00
3310;DHT22;1667;53.238;10.394;2022-08-21T23:23:59;21.50;81.90
3310;DHT22;1667;53.238;10.394;2022-08-21T23:29:09;21.50;82.30
3310;DHT22;1667;53.238;10.394;2022-08-21T23:34:25;21.40;82.70
3310;DHT22;1667;53.238;10.394;2022-08-21T23:39:41;21.40;83.00
3310;DHT22;1667;53.238;10.394;2022-08-21T23:44:52;21.30;82.90
3310;DHT22;1667;53.238;10.394;2022-08-21T23:50:06;21.30;83.50
3310;DHT22;1667;53.238;10.394;2022-08-21T23:55:21;21.20;83.50
